Time;durP1;ratioP1;P1;durP2;ratioP2;P2;SDS_P1;SDS_P2;PMS_P1;PMS_P2;Temp;Humidity;BMP_temperature;BMP_pressure;BME280_temperature;BME280_humidity;BME280_pressure;Samples;Min_cycle;Max_cycle;Signal;HPM_P1;HPM_P2
2023/10/01 00:00:12;;;;;;;15.10;8.95;;;17.80;72.20;;;;;;5027545;28;20160;-68
2023/10/01 00:02:39;;;;;;;17.17;8.93;;;17.80;72.10;;;;;;5028656;28;20089;-68
2023/10/01 00:05:06;;;;;;;16.63;9.25;;;17.80;71.90;;;;;;5028089;28;20025;-68
2023/10/01 00:07:37;;;;;;;15.27;10.18;;;17.80;71.80;;;;;;5030871;28;20029;-69
2023/10/01 00:10:10;;;;;;;14.07;9.35;;;17.80;71.80;;;;;;5045394;28;20107;-68
2023/10/01 00:12:44;;;;;;;14.75;8.60;;;17.70;71.80;;;;;;5030529;28;20025;-68
2023/10/01 00:15:12;;;;;;;16.05;9.15;;;17.70;71.80;;;;;;5030847;28;20112;-68
2023/10/01 00:17:39;;;;;;;17.23;9.32;;;17.70;71.90;;;;;;5031043;28;21158;-68
2023/10/01 00:20:18;;;;;;;14.00;9.00;;;17.70;71.90;;;;;;5027747;28;20417;-68
2023/10/01 00:22:51;;;;;;;16.33;9.70;;;17.70;72.00;;;;;;5027200;28;20058;-68
2023/10/01 00:25:18;;;;;;;18.08;9.52;;;17.60;72.00;;;;;;5028745;28;20033;-68
2023/10/01 00:27:45;;;;;;;15.82;9.27;;;17.60;72.00;;;;;;5029194;28;20066;-68
2023/10/01 00:30:11;;;;;;;14.15;8.52;;;17.60;72.10;;;;;;5030082;28;20026;-68
2023/10/01 00:32:38;;;;;;;12.80;8.95;;;17.50;72.10;;;;;;5030277;28;20083;-68
2023/10/01 00:35:06;;;;;;;15.02;9.38;;;17.50;72.20;;;;;;5030530;28;20033;-68
2023/10/01 00:37:35;;;;;;;15.30;9.40;;;17.50;72.20;;;;;;5027948;28;20120;-68
2023/10/01 00:40:04;;;;;;;14.13;8.98;;;17.50;72.30;;;;;;5028537;28;20021;-68
2023/10/01 00:42:33;;;;;;;14.32;9.25;;;17.50;72.30;;;;;;5030099;28;20037;-68
2023/10/01 00:44:58;;;;;;;13.43;9.00;;;17.50;72.30;;;;;;5030231;28;20419;-68
2023/10/01 00:47:32;;;;;;;13.73;8.77;;;17.50;72.30;;;;;;5038222;28;20117;-68
2023/10/01 00:49:59;;;;;;;15.90;9.57;;;17.50;72.10;;;;;;5027492;28;20053;-69
2023/10/01 00:52:28;;;;;;;15.13;9.27;;;17.50;72.00;;;;;;5035625;28;20113;-68
2023/10/01 00:54:55;;;;;;;15.80;9.63;;;17.50;71.90;;;;;;5030601;28;20108;-68
2023/10/01 00:57:21;;;;;;;14.32;9.30;;;17.50;71.90;;;;;;5029673;28;20071;-68
2023/10/01 00:59:48;;;;;;;15.18;9.10;;;17.50;71.90;;;;;;5036835;28;20030;-68
2023/10/01 01:02:15;;;;;;;12.60;8.77;;;17.50;71.60;;;;;;5029632;28;20037;-68
2023/10/01 01:05:05;;;;;;;16.63;9.60;;;17.50;71.50;;;;;;5030112;28;20339;-68
2023/10/01 01:07:34;;;;;;;14.35;9.25;;;17.50;71.40;;;;;;5030894;28;20116;-68
2023/10/01 01:10:01;;;;;;;14.52;8.88;;;17.50;71.40;;;;;;5032824;28;20017;-68
2023/10/01 01:12:27;;;;;;;13.95;9.00;;;17.50;71.40;;;;;;5013802;28;20157;-68
2023/10/01 01:14:54;;;;;;;14.18;8.90;;;17.40;71.40;;;;;;5029161;28;20316;-69
2023/10/01 01:17:21;;;;;;;16.63;10.13;;;17.40;71.30;;;;;;5029699;28;20367;-69
2023/10/01 01:19:52;;;;;;;15.05;9.35;;;17.40;71.30;;;;;;5033616;28;20062;-68
2023/10/01 01:22:28;;;;;;;14.23;8.98;;;17.40;71.30;;;;;;5036022;28;20044;-68
2023/10/01 01:25:00;;;;;;;15.45;9.52;;;17.40;71.40;;;;;;5035027;28;20065;-68
2023/10/01 01:27:31;;;;;;;15.80;8.75;;;17.30;71.40;;;;;;5027153;28;20035;-68
2023/10/01 01:29:57;;;;;;;14.85;10.13;;;17.30;71.50;;;;;;5047034;28;20032;-68
2023/10/01 01:32:24;;;;;;;12.60;8.75;;;17.30;71.60;;;;;;5028348;28;20080;-68
2023/10/01 01:34:52;;;;;;;16.75;9.25;;;17.30;71.60;;;;;;5028380;28;20446;-68
2023/10/01 01:37:36;;;;;;;14.60;9.25;;;17.20;71.50;;;;;;5029230;28;20426;-68
2023/10/01 01:40:24;;;;;;;15.32;9.13;;;17.30;71.60;;;;;;5028964;28;20033;-68
2023/10/01 01:42:51;;;;;;;14.43;9.23;;;17.30;71.50;;;;;;5035548;28;20025;-68
2023/10/01 01:45:19;;;;;;;14.52;8.93;;;17.30;71.50;;;;;;5029158;28;20034;-68
2023/10/01 01:47:45;;;;;;;13.73;9.18;;;17.30;71.40;;;;;;5028681;28;20112;-68
2023/10/01 01:50:27;;;;;;;13.70;8.70;;;17.20;71.40;;;;;;5027565;28;20136;-68
2023/10/01 01:52:56;;;;;;;13.25;8.82;;;17.30;71.40;;;;;;5022693;28;20025;-68
2023/10/01 01:55:27;;;;;;;13.80;9.30;;;17.30;71.40;;;;;;5027574;28;20438;-68
2023/10/01 01:58:10;;;;;;;14.35;9.10;;;17.20;71.30;;;;;;5029710;28;20091;-68
2023/10/01 02:00:38;;;;;;;14.82;8.95;;;17.30;71.30;;;;;;5026702;28;20024;-68
2023/10/01 02:03:12;;;;;;;14.73;9.43;;;17.20;71.20;;;;;;5035374;28;20041;-68
2023/10/01 02:05:41;;;;;;;13.52;8.43;;;17.20;71.20;;;;;;5029790;28;20057;-68
2023/10/01 02:08:23;;;;;;;15.55;8.88;;;17.20;71.30;;;;;;5034608;28;20036;-68
2023/10/01 02:10:53;;;;;;;15.70;8.43;;;17.20;71.20;;;;;;5028935;28;20485;-68
2023/10/01 02:13:19;;;;;;;15.02;8.27;;;17.20;71.10;;;;;;5026139;28;20033;-68
2023/10/01 02:15:45;;;;;;;12.25;7.95;;;17.20;71.00;;;;;;5029106;28;20033;-68
2023/10/01 02:18:17;;;;;;;12.65;8.25;;;17.30;71.00;;;;;;5027522;28;20033;-68
2023/10/01 02:20:44;;;;;;;13.00;7.57;;;17.30;71.00;;;;;;5028866;28;20446;-68
2023/10/01 02:23:13;;;;;;;12.10;7.50;;;17.30;71.00;;;;;;5030390;28;20080;-68
2023/10/01 02:25:45;;;;;;;12.13;7.97;;;17.20;71.00;;;;;;5028968;28;20049;-68
2023/10/01 02:28:15;;;;;;;14.48;8.02;;;17.30;71.10;;;;;;5027241;28;20030;-68
2023/10/01 02:30:44;;;;;;;12.20;7.35;;;17.30;71.10;;;;;;5038691;28;20090;-68
2023/10/01 02:33:19;;;;;;;12.60;7.25;;;17.30;71.00;;;;;;5034005;28;20025;-68
2023/10/01 02:35:48;;;;;;;12.55;7.40;;;17.30;71.00;;;;;;5035658;28;20128;-68
2023/10/01 02:41:02;;;;;;;14.25;7.38;;;17.30;71.10;;;;;;5027018;28;20021;-68
2023/10/01 02:43:34;;;;;;;13.68;6.75;;;17.30;71.20;;;;;;5030916;28;20614;-68
2023/10/01 02:46:07;;;;;;;11.52;6.50;;;17.30;71.20;;;;;;5027762;28;20514;-69
2023/10/01 02:48:34;;;;;;;12.07;6.80;;;17.30;71.10;;;;;;5030774;28;20362;-68
2023/10/01 02:51:15;;;;;;;13.05;6.68;;;17.30;71.00;;;;;;5035890;28;20093;-68
2023/10/01 02:56:26;;;;;;;11.27;5.97;;;17.30;71.00;;;;;;5024889;28;20329;-68
2023/10/01 02:58:52;;;;;;;12.38;5.85;;;17.30;71.00;;;;;;5028301;28;20387;-68
2023/10/01 03:01:21;;;;;;;14.60;6.22;;;17.30;70.80;;;;;;5027276;28;20045;-68
2023/10/01 03:03:46;;;;;;;10.90;5.70;;;17.30;70.70;;;;;;5017045;28;20041;-68
2023/10/01 03:06:12;;;;;;;12.30;6.57;;;17.30;70.70;;;;;;5033554;28;20025;-68
2023/10/01 03:09:00;;;;;;;11.50;5.63;;;17.30;70.70;;;;;;5031493;28;20447;-68
2023/10/01 03:11:34;;;;;;;10.52;5.55;;;17.40;70.60;;;;;;5038293;28;20138;-68
2023/10/01 03:14:04;;;;;;;10.70;5.50;;;17.40;70.60;;;;;;5035947;28;20041;-68
2023/10/01 03:16:41;;;;;;;11.07;5.40;;;17.30;70.50;;;;;;5027164;28;20455;-68
2023/10/01 03:19:25;;;;;;;11.13;6.22;;;17.30;70.40;;;;;;5029782;28;20037;-68
2023/10/01 03:24:41;;;;;;;9.65;5.57;;;17.30;70.30;;;;;;5027570;28;20430;-68
2023/10/01 03:27:27;;;;;;;15.05;6.07;;;17.30;70.30;;;;;;5028210;28;20037;-68
2023/10/01 03:30:20;;;;;;;11.63;5.45;;;17.30;70.40;;;;;;5029630;28;20025;-68
2023/10/01 03:32:46;;;;;;;12.18;5.28;;;17.30;70.40;;;;;;5027202;28;20029;-68
2023/10/01 03:35:12;;;;;;;13.00;6.05;;;17.30;70.60;;;;;;5011500;28;20034;-68
2023/10/01 03:37:38;;;;;;;10.90;5.22;;;17.30;70.70;;;;;;5027668;28;20029;-68
2023/10/01 03:40:18;;;;;;;11.60;4.93;;;17.30;70.70;;;;;;5028514;28;20044;-68
2023/10/01 03:42:51;;;;;;;10.68;5.38;;;17.30;70.60;;;;;;5028345;28;20163;-68
2023/10/01 03:47:58;;;;;;;10.48;5.45;;;17.30;70.50;;;;;;5032079;28;20587;-68
2023/10/01 03:50:31;;;;;;;11.95;5.72;;;17.30;70.50;;;;;;5027449;28;20028;-68
2023/10/01 03:52:59;;;;;;;10.23;4.78;;;17.30;70.50;;;;;;5033106;28;20454;-68
2023/10/01 03:58:07;;;;;;;10.23;4.97;;;17.30;70.50;;;;;;5031158;28;20026;-68
2023/10/01 04:00:41;;;;;;;10.63;5.63;;;17.30;70.50;;;;;;5048673;28;20030;-68
2023/10/01 04:03:16;;;;;;;11.45;5.35;;;17.30;70.50;;;;;;5031605;28;20115;-68
2023/10/01 04:05:46;;;;;;;13.38;5.57;;;17.30;70.50;;;;;;5030638;28;20100;-68
2023/10/01 04:08:15;;;;;;;12.63;5.35;;;17.30;70.40;;;;;;5029070;28;20025;-68
2023/10/01 04:10:43;;;;;;;12.30;5.35;;;17.30;70.50;;;;;;5045944;28;20029;-68
2023/10/01 04:13:12;;;;;;;10.57;4.90;;;17.30;70.50;;;;;;5029575;28;20037;-68
2023/10/01 04:15:47;;;;;;;11.25;4.85;;;17.30;70.60;;;;;;5045214;28;20099;-68
2023/10/01 04:23:29;;;;;;;11.05;5.50;;;17.30;70.70;;;;;;5023559;28;20051;-68
2023/10/01 04:26:04;;;;;;;11.32;5.10;;;17.30;71.40;;;;;;5030351;28;20026;-68
2023/10/01 04:28:37;;;;;;;13.38;5.75;;;17.30;70.70;;;;;;5031062;28;20026;-68
2023/10/01 04:31:10;;;;;;;11.73;5.00;;;17.30;70.50;;;;;;5031006;28;20052;-68
2023/10/01 04:33:42;;;;;;;12.30;5.00;;;17.30;70.70;;;;;;5031415;28;20117;-68
2023/10/01 04:36:11;;;;;;;10.63;4.07;;;17.30;70.60;;;;;;5032438;28;20350;-68
2023/10/01 04:38:41;;;;;;;11.48;5.45;;;17.30;70.60;;;;;;5032338;28;20457;-68
2023/10/01 04:41:11;;;;;;;10.98;4.15;;;17.30;70.50;;;;;;5029453;28;20104;-68
2023/10/01 04:43:42;;;;;;;10.55;4.60;;;17.30;70.50;;;;;;5029144;28;20069;-68
2023/10/01 04:46:10;;;;;;;10.63;4.85;;;17.30;70.40;;;;;;5030975;28;20109;-68
2023/10/01 04:48:36;;;;;;;10.95;4.97;;;17.30;70.30;;;;;;5031199;28;20033;-67
2023/10/01 04:51:07;;;;;;;12.38;5.10;;;17.30;71.00;;;;;;5040560;28;20382;-68
2023/10/01 04:53:33;;;;;;;9.90;4.75;;;17.40;70.30;;;;;;5030192;28;20095;-68
2023/10/01 04:56:05;;;;;;;10.45;4.53;;;17.30;70.30;;;;;;5027748;28;20473;-68
2023/10/01 04:58:38;;;;;;;13.15;5.05;;;17.30;70.30;;;;;;5029630;28;20029;-68
2023/10/01 05:01:06;;;;;;;10.38;5.15;;;17.30;70.30;;;;;;5030271;28;20087;-68
2023/10/01 05:03:41;;;;;;;11.30;4.88;;;17.30;70.40;;;;;;5031197;28;20030;-68
2023/10/01 05:06:13;;;;;;;12.30;5.53;;;17.30;70.40;;;;;;5044597;28;20363;-68
2023/10/01 05:08:40;;;;;;;11.82;5.28;;;17.30;70.30;;;;;;5032212;28;20025;-69
2023/10/01 05:11:10;;;;;;;11.45;5.05;;;17.40;70.50;;;;;;5037923;28;20033;-68
2023/10/01 05:13:47;;;;;;;11.05;5.13;;;17.30;70.50;;;;;;5036446;28;20033;-69
2023/10/01 05:16:14;;;;;;;11.68;5.18;;;17.30;70.60;;;;;;5039331;28;20104;-69
2023/10/01 05:18:45;;;;;;;12.43;5.60;;;17.30;70.70;;;;;;5038809;28;20099;-69
2023/10/01 05:21:14;;;;;;;;;;;17.30;70.70;;;;;;5039834;28;20121;-69
2023/10/01 05:23:43;;;;;;;10.60;4.78;;;17.30;70.70;;;;;;5054417;28;19909;-69
2023/10/01 05:26:10;;;;;;;10.90;5.35;;;17.30;70.80;;;;;;5051318;28;20044;-70
2023/10/01 05:28:41;;;;;;;13.85;5.68;;;17.30;70.90;;;;;;5053538;28;20021;-69
2023/10/01 05:31:24;;;;;;;11.13;5.18;;;17.30;71.00;;;;;;5049730;28;20565;-69
2023/10/01 05:33:58;;;;;;;10.82;5.15;;;17.30;71.10;;;;;;5041368;28;20037;-69
2023/10/01 05:36:24;;;;;;;13.35;5.55;;;17.30;71.10;;;;;;5052172;28;20051;-69
2023/10/01 05:38:54;;;;;;;13.90;6.18;;;17.30;71.10;;;;;;5055497;28;20409;-69
2023/10/01 05:41:29;;;;;;;12.52;5.03;;;17.30;71.10;;;;;;5036322;28;20446;-69
2023/10/01 05:44:01;;;;;;;10.43;5.47;;;17.30;71.10;;;;;;5034376;28;20068;-69
2023/10/01 05:46:28;;;;;;;13.95;5.68;;;17.30;71.20;;;;;;5035019;28;20037;-69
2023/10/01 05:49:00;;;;;;;13.68;5.53;;;17.30;71.30;;;;;;5034303;28;20119;-70
2023/10/01 05:51:45;;;;;;;11.02;5.30;;;17.30;71.40;;;;;;5035182;28;20049;-69
2023/10/01 05:54:18;;;;;;;10.48;5.32;;;17.30;71.40;;;;;;5034376;28;20033;-69
2023/10/01 05:56:48;;;;;;;13.02;5.90;;;17.30;71.40;;;;;;5032739;28;20033;-69
2023/10/01 05:59:16;;;;;;;11.23;5.50;;;17.30;71.40;;;;;;5031060;28;20044;-69
2023/10/01 06:01:43;;;;;;;12.27;5.38;;;17.40;71.40;;;;;;5027465;28;20033;-69
2023/10/01 06:04:12;;;;;;;14.35;5.75;;;17.40;71.40;;;;;;5038025;28;20030;-69
2023/10/01 06:06:42;;;;;;;12.00;5.82;;;17.40;71.30;;;;;;5028835;28;20025;-69
2023/10/01 06:09:23;;;;;;;13.02;6.18;;;17.40;71.20;;;;;;5029822;28;20108;-68
2023/10/01 06:11:49;;;;;;;11.80;5.57;;;17.40;71.20;;;;;;5033446;28;20040;-69
2023/10/01 06:17:00;;;;;;;14.02;6.18;;;17.40;71.20;;;;;;5027192;28;20079;-69
2023/10/01 06:19:33;;;;;;;12.88;5.75;;;17.40;71.30;;;;;;5028381;28;20715;-69
2023/10/01 06:22:22;;;;;;;13.70;5.63;;;17.50;71.60;;;;;;5027679;28;20129;-69
2023/10/01 06:24:49;;;;;;;12.43;4.90;;;17.50;71.50;;;;;;5027325;28;20041;-70
2023/10/01 06:27:18;;;;;;;11.85;5.22;;;17.50;71.50;;;;;;5030427;28;20032;-68
2023/10/01 06:29:50;;;;;;;12.60;5.50;;;17.50;71.70;;;;;;5028189;28;20106;-68
2023/10/01 06:32:21;;;;;;;11.27;5.60;;;17.50;71.60;;;;;;5029673;28;20021;-68
2023/10/01 06:34:49;;;;;;;13.88;6.30;;;17.50;71.60;;;;;;5026500;28;20037;-68
2023/10/01 06:37:15;;;;;;;13.95;5.65;;;17.50;71.50;;;;;;5028501;28;20103;-68
2023/10/01 06:39:43;;;;;;;14.48;6.45;;;17.60;71.40;;;;;;5026461;28;20041;-68
2023/10/01 06:42:18;;;;;;;12.40;5.47;;;17.60;71.40;;;;;;5030946;28;20042;-68
2023/10/01 06:44:48;;;;;;;12.63;5.70;;;17.60;71.40;;;;;;5027941;28;20413;-68
2023/10/01 06:47:15;;;;;;;14.60;5.45;;;17.70;71.30;;;;;;5026589;28;20059;-68
2023/10/01 06:49:59;;;;;;;11.80;5.35;;;17.70;71.30;;;;;;5028166;28;20118;-68
2023/10/01 06:52:32;;;;;;;14.40;6.80;;;17.70;71.20;;;;;;5041490;28;20109;-68
2023/10/01 06:55:01;;;;;;;13.10;5.68;;;17.70;71.10;;;;;;5039182;28;20026;-67
2023/10/01 06:57:28;;;;;;;11.73;5.82;;;17.70;71.00;;;;;;5026836;28;20473;-70
2023/10/01 06:59:57;;;;;;;14.02;5.80;;;17.80;71.00;;;;;;5041734;28;20044;-69
2023/10/01 07:02:27;;;;;;;11.82;4.97;;;17.80;71.00;;;;;;5029021;28;20032;-69
2023/10/01 07:04:58;;;;;;;12.75;5.57;;;17.80;70.80;;;;;;5023562;28;20049;-69
2023/10/01 07:07:31;;;;;;;11.60;5.30;;;17.90;70.70;;;;;;5025879;28;20022;-69
2023/10/01 07:09:57;;;;;;;12.18;5.20;;;17.90;70.60;;;;;;5027021;28;20029;-68
2023/10/01 07:12:24;;;;;;;13.48;6.05;;;18.00;70.50;;;;;;5026415;28;20454;-68
2023/10/01 07:14:53;;;;;;;12.00;5.53;;;18.10;70.40;;;;;;5029048;28;20458;-68
2023/10/01 07:17:24;;;;;;;13.07;6.00;;;18.10;70.20;;;;;;5032271;28;20071;-68
2023/10/01 07:20:00;;;;;;;13.32;6.22;;;18.20;70.20;;;;;;5027515;28;20033;-69
2023/10/01 07:22:38;;;;;;;14.77;5.95;;;18.20;70.00;;;;;;5027338;28;20052;-69
2023/10/01 07:25:04;;;;;;;14.80;6.80;;;18.30;70.10;;;;;;5031448;28;20374;-69
2023/10/01 07:27:30;;;;;;;13.88;6.38;;;18.20;70.00;;;;;;5031493;28;20028;-68
2023/10/01 07:29:57;;;;;;;13.27;5.90;;;18.20;70.00;;;;;;5032212;28;20331;-69
2023/10/01 07:32:24;;;;;;;13.32;5.38;;;18.30;70.10;;;;;;5031830;28;20033;-69
2023/10/01 07:34:58;;;;;;;13.27;5.88;;;18.30;69.90;;;;;;5024754;28;20450;-69
2023/10/01 07:37:26;;;;;;;14.52;5.93;;;18.30;69.70;;;;;;5047782;28;20026;-68
2023/10/01 07:39:55;;;;;;;13.68;6.00;;;18.30;69.70;;;;;;5028038;28;20040;-68
2023/10/01 07:42:28;;;;;;;12.45;5.32;;;18.40;69.80;;;;;;5028923;28;20017;-69
2023/10/01 07:44:56;;;;;;;13.25;6.13;;;18.40;69.70;;;;;;5032363;28;20120;-69
2023/10/01 07:47:32;;;;;;;13.07;6.13;;;18.50;69.40;;;;;;5030624;28;20061;-69
2023/10/01 07:50:02;;;;;;;12.52;5.65;;;18.60;69.20;;;;;;5033639;28;20498;-69
2023/10/01 07:52:29;;;;;;;14.63;5.97;;;18.70;69.00;;;;;;5041231;28;20065;-69
2023/10/01 07:54:57;;;;;;;12.13;5.63;;;18.80;68.80;;;;;;5033351;28;20033;-70
2023/10/01 07:57:27;;;;;;;13.52;6.75;;;18.90;68.60;;;;;;5029957;28;20044;-70
2023/10/01 08:00:00;;;;;;;13.80;6.07;;;19.00;68.50;;;;;;5031680;28;20032;-70
2023/10/01 08:02:28;;;;;;;14.73;5.95;;;19.10;68.30;;;;;;5032575;28;20370;-70
2023/10/01 08:04:58;;;;;;;11.48;6.28;;;19.20;68.30;;;;;;5032480;28;20447;-70
2023/10/01 08:07:39;;;;;;;13.68;5.93;;;19.30;68.00;;;;;;5028660;28;20083;-69
2023/10/01 08:10:16;;;;;;;11.98;6.10;;;19.40;67.80;;;;;;5014093;28;20018;-70
2023/10/01 08:15:29;;;;;;;14.55;6.35;;;19.60;67.40;;;;;;5034901;28;20436;-69
2023/10/01 08:21:00;;;;;;;13.68;5.82;;;19.90;66.90;;;;;;5032581;28;20124;-70
2023/10/01 08:23:36;;;;;;;12.65;6.18;;;20.00;66.50;;;;;;5030532;28;20048;-69
2023/10/01 08:28:57;;;;;;;12.48;6.38;;;20.30;66.00;;;;;;5029969;28;20116;-69
2023/10/01 08:34:28;;;;;;;14.85;6.50;;;20.60;65.50;;;;;;5030259;28;20110;-69
2023/10/01 08:36:56;;;;;;;14.57;6.90;;;20.80;65.20;;;;;;5030842;28;20033;-68
2023/10/01 08:42:08;;;;;;;14.10;6.63;;;21.00;65.50;;;;;;5036097;28;20033;-70
2023/10/01 08:44:47;;;;;;;13.52;6.82;;;21.20;64.60;;;;;;5046800;28;20029;-70
2023/10/01 08:47:28;;;;;;;14.85;7.05;;;21.40;64.10;;;;;;5030761;28;20113;-69
2023/10/01 08:50:17;;;;;;;14.15;6.70;;;21.50;63.90;;;;;;5020803;28;20029;-70
2023/10/01 08:58:15;;;;;;;13.20;6.53;;;21.90;63.00;;;;;;5030450;28;20059;-68
2023/10/01 09:00:52;;;;;;;13.55;6.63;;;22.00;62.80;;;;;;5020901;28;20032;-68
2023/10/01 09:03:34;;;;;;;15.25;6.78;;;22.10;62.70;;;;;;5028326;28;20116;-68
2023/10/01 09:06:03;;;;;;;13.55;7.07;;;22.30;62.50;;;;;;5029291;28;20438;-68
2023/10/01 09:08:45;;;;;;;13.88;7.38;;;22.40;62.10;;;;;;5030729;28;20122;-68
2023/10/01 09:11:16;;;;;;;13.27;6.70;;;22.50;62.00;;;;;;5022719;28;20072;-67
2023/10/01 09:14:14;;;;;;;13.70;6.70;;;22.50;61.70;;;;;;5041862;28;20081;-69
2023/10/01 09:16:45;;;;;;;13.85;7.22;;;22.60;61.60;;;;;;5029198;28;20458;-69
2023/10/01 09:19:37;;;;;;;16.07;6.77;;;22.70;61.70;;;;;;5030598;28;20442;-67
2023/10/01 09:22:21;;;;;;;15.07;6.97;;;22.70;61.60;;;;;;5042601;28;20133;-67
2023/10/01 09:25:01;;;;;;;14.77;8.05;;;22.80;61.80;;;;;;5029674;28;20513;-69
2023/10/01 09:27:30;;;;;;;14.25;7.07;;;22.80;61.70;;;;;;5029879;28;20025;-68
2023/10/01 09:30:27;;;;;;;14.07;7.00;;;22.80;61.60;;;;;;5045387;28;20046;-68
2023/10/01 09:33:05;;;;;;;13.75;6.53;;;22.80;62.10;;;;;;5028467;28;20118;-67
2023/10/01 09:35:50;;;;;;;12.18;6.40;;;22.90;61.70;;;;;;5003519;28;20028;-69
2023/10/01 09:38:19;;;;;;;13.82;7.25;;;23.10;61.30;;;;;;5041577;28;20113;-68
2023/10/01 09:40:46;;;;;;;14.90;6.90;;;23.20;61.20;;;;;;5030716;28;20025;-69
2023/10/01 09:43:24;;;;;;;15.02;6.72;;;23.30;60.80;;;;;;5031024;28;20033;-68
2023/10/01 09:45:52;;;;;;;14.85;6.53;;;23.30;60.50;;;;;;5043404;28;20026;-69
2023/10/01 09:48:30;;;;;;;14.25;6.80;;;23.30;60.50;;;;;;5011634;28;20411;-69
2023/10/01 09:51:07;;;;;;;14.50;6.45;;;23.30;60.50;;;;;;5026072;28;20024;-69
2023/10/01 09:54:00;;;;;;;12.57;6.03;;;23.20;60.50;;;;;;5028620;28;20116;-69
2023/10/01 09:56:26;;;;;;;13.70;6.70;;;23.10;60.70;;;;;;5043391;28;20068;-68
2023/10/01 09:59:11;;;;;;;12.93;6.75;;;23.10;60.90;;;;;;5042804;28;20044;-68
2023/10/01 10:01:39;;;;;;;15.73;6.28;;;23.10;61.00;;;;;;5026600;28;20033;-67
2023/10/01 10:04:07;;;;;;;13.82;6.55;;;23.30;61.00;;;;;;5021631;28;20317;-68
2023/10/01 10:06:33;;;;;;;13.85;6.70;;;23.40;60.80;;;;;;5029748;28;20057;-68
2023/10/01 10:09:04;;;;;;;13.73;6.85;;;23.60;60.60;;;;;;5035410;28;20060;-69
2023/10/01 10:11:43;;;;;;;12.68;6.15;;;23.70;60.40;;;;;;5030817;28;20025;-68
2023/10/01 10:14:27;;;;;;;13.40;6.28;;;23.90;60.20;;;;;;5017811;28;20033;-69
2023/10/01 10:17:00;;;;;;;13.65;6.18;;;24.00;59.70;;;;;;5027424;28;20315;-68
2023/10/01 10:19:30;;;;;;;13.60;6.32;;;24.10;59.60;;;;;;5044486;28;20090;-69
2023/10/01 10:24:47;;;;;;;12.85;5.68;;;24.20;59.30;;;;;;5028187;28;20025;-70
2023/10/01 10:27:19;;;;;;;12.15;6.05;;;24.20;59.20;;;;;;5025783;28;20030;-69
2023/10/01 10:29:57;;;;;;;13.20;5.80;;;24.30;59.30;;;;;;5028454;28;20045;-71
2023/10/01 10:32:24;;;;;;;12.48;6.25;;;24.40;59.20;;;;;;5043531;28;20029;-68
2023/10/01 10:35:06;;;;;;;12.10;5.78;;;24.50;59.10;;;;;;5025112;28;20462;-68
2023/10/01 10:37:53;;;;;;;12.93;5.97;;;24.50;58.90;;;;;;5042100;28;20034;-69
2023/10/01 10:43:02;;;;;;;15.23;6.38;;;24.60;58.80;;;;;;5028073;28;20037;-69
2023/10/01 10:45:42;;;;;;;13.43;6.82;;;24.50;58.80;;;;;;5028769;28;20473;-67
2023/10/01 10:48:09;;;;;;;11.43;5.53;;;24.50;58.90;;;;;;5027934;28;20040;-67
2023/10/01 10:50:50;;;;;;;14.25;6.00;;;24.40;59.00;;;;;;5028392;28;20544;-67
2023/10/01 10:53:25;;;;;;;12.40;6.18;;;24.30;59.10;;;;;;5025989;28;20030;-67
2023/10/01 10:56:02;;;;;;;13.63;6.43;;;24.20;59.20;;;;;;5025689;28;20025;-67
2023/10/01 10:58:39;;;;;;;14.25;6.68;;;24.10;59.30;;;;;;5036023;28;20128;-67
2023/10/01 11:01:16;;;;;;;14.52;6.95;;;24.00;59.40;;;;;;5017961;28;20133;-67
2023/10/01 11:03:59;;;;;;;13.95;6.63;;;24.00;59.60;;;;;;5041243;28;20029;-66
2023/10/01 11:06:39;;;;;;;14.18;6.28;;;24.00;59.50;;;;;;5037100;28;20120;-67
2023/10/01 11:09:24;;;;;;;12.57;5.55;;;24.00;59.50;;;;;;5026959;28;20031;-70
2023/10/01 11:12:21;;;;;;;13.65;6.30;;;24.00;59.70;;;;;;5016719;28;20025;-68
2023/10/01 11:15:40;;;;;;;14.25;6.55;;;24.00;59.90;;;;;;5026768;28;20041;-68
2023/10/01 11:17:47;;;;;;;15.43;6.25;;;24.10;59.70;;;;;;5039157;28;20370;-69
2023/10/01 11:20:22;;;;;;;14.40;6.95;;;24.20;59.70;;;;;;5040859;28;20110;-69
2023/10/01 11:22:54;;;;;;;14.30;7.53;;;24.20;59.60;;;;;;5035841;28;20048;-68
2023/10/01 11:25:24;;;;;;;15.00;7.22;;;24.30;59.30;;;;;;5038595;28;20406;-68
2023/10/01 11:28:05;;;;;;;16.60;6.63;;;24.30;59.30;;;;;;5037929;28;20450;-69
2023/10/01 11:30:43;;;;;;;13.93;6.25;;;24.30;59.20;;;;;;5045995;28;20033;-68
2023/10/01 11:36:07;;;;;;;15.13;7.03;;;24.40;59.20;;;;;;5027188;28;20048;-68
2023/10/01 11:38:35;;;;;;;14.20;6.22;;;24.50;59.30;;;;;;5012069;28;20025;-68
2023/10/01 11:41:13;;;;;;;16.45;6.22;;;24.50;59.10;;;;;;5038114;28;20438;-69
2023/10/01 11:44:02;;;;;;;14.52;5.57;;;24.60;58.90;;;;;;5034121;28;20477;-69
2023/10/01 11:46:35;;;;;;;12.30;6.18;;;24.60;58.80;;;;;;5048234;28;20021;-69
2023/10/01 11:49:07;;;;;;;13.77;6.00;;;24.50;58.70;;;;;;5035684;28;20132;-69
2023/10/01 11:52:01;;;;;;;15.45;6.68;;;24.60;58.80;;;;;;5043414;28;20028;-68
2023/10/01 11:54:52;;;;;;;15.20;6.25;;;24.50;58.80;;;;;;5036022;28;20431;-69
2023/10/01 11:57:22;;;;;;;17.35;6.13;;;24.50;59.00;;;;;;5035478;28;20104;-69
2023/10/01 11:59:56;;;;;;;14.90;6.00;;;24.50;58.90;;;;;;5033520;28;20048;-69
2023/10/01 12:02:29;;;;;;;11.05;5.03;;;24.50;58.90;;;;;;5038992;28;20045;-70
2023/10/01 12:04:57;;;;;;;14.52;5.63;;;24.50;59.10;;;;;;5032423;28;20167;-68
2023/10/01 12:07:27;;;;;;;13.93;6.13;;;24.50;59.00;;;;;;5032652;28;20484;-69
2023/10/01 12:09:54;;;;;;;13.55;6.90;;;24.50;59.10;;;;;;5034965;28;20112;-69
2023/10/01 12:12:36;;;;;;;14.50;5.78;;;24.40;59.30;;;;;;5036162;28;20032;-69
2023/10/01 12:17:55;;;;;;;11.82;5.78;;;24.40;59.30;;;;;;5033769;28;20068;-68
2023/10/01 12:20:29;;;;;;;13.20;5.90;;;24.30;59.30;;;;;;5042263;28;20068;-69
2023/10/01 12:26:00;;;;;;;12.25;5.85;;;24.30;60.10;;;;;;5044917;28;20042;-69
2023/10/01 12:28:29;;;;;;;12.75;5.63;;;24.20;59.70;;;;;;5036185;28;20102;-69
2023/10/01 12:31:23;;;;;;;12.50;5.45;;;24.10;59.80;;;;;;5030741;28;21729;-69
2023/10/01 12:33:46;;;;;;;13.52;5.72;;;24.00;59.90;;;;;;5029016;28;20072;-69
2023/10/01 12:41:47;;;;;;;10.68;4.93;;;24.00;60.50;;;;;;5029282;28;20072;-69
2023/10/01 12:44:24;;;;;;;12.10;5.43;;;24.00;60.60;;;;;;5030841;28;20025;-69
2023/10/01 12:46:54;;;;;;;11.98;5.68;;;23.90;60.70;;;;;;5037894;28;20025;-67
2023/10/01 12:49:23;;;;;;;13.48;5.55;;;23.90;60.90;;;;;;5030491;28;20040;-66
2023/10/01 12:51:48;;;;;;;12.40;5.25;;;23.90;60.90;;;;;;5029480;28;20021;-72
2023/10/01 12:54:18;;;;;;;12.68;6.32;;;23.90;61.10;;;;;;5029429;28;20030;-69
2023/10/01 13:02:43;;;;;;;10.18;4.72;;;23.90;61.50;;;;;;5031810;28;20049;-69
2023/10/01 13:05:27;;;;;;;10.23;4.57;;;23.90;61.60;;;;;;5028140;28;20340;-69
2023/10/01 13:07:57;;;;;;;12.10;5.38;;;23.80;61.50;;;;;;5033979;28;20516;-70
2023/10/01 13:10:37;;;;;;;10.63;4.47;;;23.90;61.50;;;;;;5036368;28;20435;-70
2023/10/01 13:13:08;;;;;;;12.05;5.15;;;23.90;61.50;;;;;;5017796;28;20109;-70
2023/10/01 13:15:36;;;;;;;11.95;5.45;;;23.90;62.20;;;;;;5027633;28;20113;-70
2023/10/01 13:18:18;;;;;;;11.05;5.45;;;23.90;61.50;;;;;;5035219;28;20354;-70
2023/10/01 13:21:27;;;;;;;;;;;23.90;61.60;;;;;;5036113;28;20049;-70
2023/10/01 13:23:41;;;;;;;9.10;3.92;;;23.80;61.60;;;;;;5028421;28;19919;-70
2023/10/01 13:26:24;;;;;;;11.30;4.95;;;23.80;61.70;;;;;;5032123;28;20043;-70
2023/10/01 13:28:53;;;;;;;9.82;4.43;;;23.80;61.70;;;;;;5027419;28;20026;-70
2023/10/01 13:34:06;;;;;;;11.05;4.80;;;23.70;62.00;;;;;;5031563;28;20025;-70
2023/10/01 13:37:12;;;;;;;11.10;4.80;;;23.60;62.00;;;;;;5029033;28;20366;-70
2023/10/01 14:09:47;;;;;;;13.63;6.40;;;23.20;63.50;;;;;;5027578;28;20427;-70
2023/10/01 14:15:26;;;;;;;12.05;5.70;;;23.20;63.60;;;;;;5030979;28;20037;-71
2023/10/01 14:17:57;;;;;;;12.70;5.65;;;23.20;63.70;;;;;;5031408;28;20439;-71
2023/10/01 14:20:46;;;;;;;13.07;5.25;;;23.20;63.80;;;;;;5044690;28;20047;-69
2023/10/01 14:23:40;;;;;;;11.15;6.03;;;23.20;63.80;;;;;;5044877;28;20061;-70
2023/10/01 14:26:26;;;;;;;12.55;5.78;;;23.20;63.80;;;;;;5029444;28;20029;-70
2023/10/01 14:28:55;;;;;;;13.30;6.10;;;23.20;63.70;;;;;;5027722;28;20408;-70
2023/10/01 14:34:08;;;;;;;14.27;6.10;;;23.20;63.80;;;;;;5027353;28;20041;-70
2023/10/01 14:36:39;;;;;;;16.02;6.60;;;23.10;63.60;;;;;;5029125;28;20346;-70
2023/10/01 14:39:09;;;;;;;12.68;6.57;;;23.10;63.60;;;;;;5029845;28;20025;-70
2023/10/01 14:41:41;;;;;;;14.23;6.30;;;23.10;63.70;;;;;;5039094;28;20124;-70
2023/10/01 14:44:08;;;;;;;14.75;6.57;;;23.10;63.80;;;;;;5025184;28;20033;-71
2023/10/01 14:46:37;;;;;;;14.93;6.70;;;23.00;63.60;;;;;;5027138;28;20026;-71
2023/10/01 14:49:06;;;;;;;11.93;6.03;;;23.00;63.40;;;;;;5027674;28;20025;-71
2023/10/01 14:51:36;;;;;;;12.18;5.68;;;23.00;63.30;;;;;;5033673;28;20079;-71